createdAt,value
2019-02-23T00:02:15.135Z,74.88
2019-02-23T00:04:41.906Z,74.61
2019-02-23T00:07:08.782Z,75.04
2019-02-23T00:09:35.526Z,75.66
2019-02-23T00:12:04.564Z,76.62
2019-02-23T00:14:30.968Z,76.25
2019-02-23T00:16:58.192Z,75.67
2019-02-23T00:19:25.367Z,75.69
2019-02-23T00:21:52.698Z,75.59
2019-02-23T00:24:19.468Z,75.50
2019-02-23T00:26:46.256Z,76.09
2019-02-23T00:29:12.999Z,75.53
2019-02-23T00:31:39.770Z,75.09
2019-02-23T00:34:06.527Z,74.88
2019-02-23T00:36:33.264Z,76.23
2019-02-23T00:39:00.478Z,75.90
2019-02-23T00:41:27.194Z,76.98
2019-02-23T00:43:54.280Z,77.24
2019-02-23T00:46:21.005Z,77.76
2019-02-23T00:48:47.718Z,78.33
2019-02-23T00:51:14.437Z,78.75
2019-02-23T00:53:41.160Z,78.20
2019-02-23T00:56:08.479Z,77.91
2019-02-23T00:58:38.355Z,77.91
2019-02-23T01:01:05.089Z,77.28
2019-02-23T01:03:31.795Z,76.69
2019-02-23T01:05:58.546Z,76.66
2019-02-23T01:08:25.345Z,76.19
2019-02-23T01:10:58.216Z,76.77
2019-02-23T01:13:20.822Z,76.77
2019-02-23T01:15:47.554Z,77.09
2019-02-23T01:18:16.193Z,76.83
2019-02-23T01:20:43.749Z,76.08
2019-02-23T01:23:10.496Z,76.08
2019-02-23T01:25:38.869Z,75.92
2019-02-23T01:28:05.583Z,76.15
2019-02-23T01:30:32.695Z,76.18
2019-02-23T01:32:59.486Z,76.26
2019-02-23T01:35:26.201Z,77.71
2019-02-23T01:37:52.935Z,78.86
2019-02-23T01:40:19.865Z,78.86
2019-02-23T01:42:49.585Z,78.99
2019-02-23T01:45:16.297Z,78.99
2019-02-23T01:47:43.235Z,78.70
2019-02-23T01:50:10.541Z,78.92
2019-02-23T01:52:37.275Z,78.92
2019-02-23T01:55:05.931Z,78.01
2019-02-23T01:57:32.719Z,78.01
2019-02-23T01:59:59.437Z,77.78
2019-02-23T02:02:26.158Z,77.78
2019-02-23T02:04:52.895Z,76.74
2019-02-23T02:07:19.634Z,77.49
2019-02-23T02:09:46.362Z,77.49
2019-02-23T02:12:14.197Z,76.22
2019-02-23T02:14:40.923Z,76.22
2019-02-23T02:17:08.120Z,75.93
2019-02-23T02:19:35.359Z,75.83
2019-02-23T02:22:02.422Z,75.80
2019-02-23T02:24:29.395Z,75.80
2019-02-23T02:26:56.151Z,74.76
2019-02-23T02:29:23.079Z,75.05
2019-02-23T02:31:49.847Z,75.05
2019-02-23T02:34:16.671Z,75.09
2019-02-23T02:36:46.434Z,76.41
2019-02-23T02:39:14.345Z,76.41
2019-02-23T02:41:41.259Z,75.87
2019-02-23T02:44:07.975Z,75.87
2019-02-23T02:46:34.714Z,76.76
2019-02-23T02:49:01.487Z,76.67
2019-02-23T02:51:28.234Z,77.22
2019-02-23T02:53:55.382Z,77.42
2019-02-23T02:56:22.135Z,77.13
2019-02-23T02:58:49.079Z,77.56
2019-02-23T03:01:15.826Z,77.65
2019-02-23T03:03:42.573Z,78.01
2019-02-23T03:06:10.483Z,78.10
2019-02-23T03:08:37.216Z,78.26
2019-02-23T03:11:03.914Z,78.76
2019-02-23T03:13:30.666Z,79.40
2019-02-23T03:15:57.399Z,79.40
2019-02-23T03:18:26.737Z,79.22
2019-02-23T03:20:53.537Z,79.52
2019-02-23T03:23:20.560Z,79.52
2019-02-23T03:25:47.396Z,79.21
2019-02-23T03:28:14.165Z,78.51
2019-02-23T03:30:41.307Z,77.43
2019-02-23T03:33:08.065Z,77.43
2019-02-23T03:35:34.783Z,77.25
2019-02-23T03:38:01.643Z,76.87
2019-02-23T03:40:28.350Z,77.08
2019-02-23T03:42:56.180Z,76.36
2019-02-23T03:45:23.041Z,76.63
2019-02-23T03:47:49.796Z,77.50
2019-02-23T03:50:16.571Z,77.49
2019-02-23T03:52:43.310Z,78.26
2019-02-23T03:55:10.033Z,77.55
2019-02-23T03:57:37.079Z,77.55
2019-02-23T04:00:05.531Z,78.52
2019-02-23T04:02:32.270Z,78.25
2019-02-23T04:04:58.996Z,78.25
2019-02-23T04:07:25.714Z,77.91
2019-02-23T04:09:55.221Z,77.34
2019-02-23T04:12:21.935Z,77.34
2019-02-23T04:14:48.660Z,76.90
2019-02-23T04:17:15.708Z,76.75
2019-02-23T04:19:42.428Z,76.50
2019-02-23T04:22:10.214Z,76.62
2019-02-23T04:24:36.958Z,76.31
2019-02-23T04:27:05.600Z,75.91
2019-02-23T04:29:32.648Z,76.76
2019-02-23T04:31:59.412Z,75.37
2019-02-23T04:34:26.345Z,75.37
2019-02-23T04:36:53.072Z,75.96
2019-02-23T04:39:19.956Z,76.08
2019-02-23T04:41:46.682Z,75.46
2019-02-23T04:44:13.461Z,75.26
2019-02-23T04:46:40.212Z,75.93
2019-02-23T04:49:07.027Z,75.31
2019-02-23T04:51:33.759Z,75.31
2019-02-23T04:54:00.494Z,77.00
2019-02-23T04:56:27.196Z,77.00
2019-02-23T04:58:53.923Z,76.01
2019-02-23T05:01:22.494Z,76.30
2019-02-23T05:03:49.220Z,75.28
2019-02-23T05:06:15.917Z,75.28
2019-02-23T05:08:42.801Z,74.97
2019-02-23T05:11:09.524Z,75.22
2019-02-23T05:13:36.262Z,75.87
2019-02-23T05:16:02.988Z,76.07
2019-02-23T05:18:29.706Z,76.07
2019-02-23T05:20:56.437Z,76.32
2019-02-23T05:23:23.154Z,76.56
2019-02-23T05:25:49.927Z,76.11
2019-02-23T05:28:16.700Z,76.01
2019-02-23T05:30:43.398Z,76.01
2019-02-23T05:33:10.140Z,76.53
2019-02-23T05:35:36.850Z,76.53
2019-02-23T05:38:06.358Z,76.64
2019-02-23T05:40:34.976Z,76.83
2019-02-23T05:43:03.228Z,77.07
2019-02-23T05:45:29.960Z,76.25
2019-02-23T05:47:56.892Z,76.29
2019-02-23T05:50:23.666Z,76.25
2019-02-23T05:52:50.533Z,76.25
2019-02-23T05:55:17.292Z,75.96
2019-02-23T05:57:44.034Z,75.96
2019-02-23T06:00:11.120Z,76.23
2019-02-23T06:02:37.888Z,76.23
2019-02-23T06:05:04.692Z,76.40
2019-02-23T06:07:31.454Z,75.86
2019-02-23T06:09:58.352Z,76.24
2019-02-23T06:12:25.086Z,76.24
2019-02-23T06:14:52.249Z,75.36
2019-02-23T06:17:19.013Z,74.86
2019-02-23T06:19:45.750Z,74.86
2019-02-23T06:22:12.608Z,75.43
2019-02-23T06:24:39.367Z,75.40
2019-02-23T06:27:06.087Z,75.51
2019-02-23T06:29:33.210Z,75.40
2019-02-23T06:31:59.960Z,75.05
2019-02-23T06:34:28.865Z,74.59
2019-02-23T06:36:55.848Z,74.59
2019-02-23T06:39:22.978Z,74.28
2019-02-23T06:41:50.015Z,74.16
2019-02-23T06:44:17.074Z,74.38
2019-02-23T06:46:43.856Z,74.36
2019-02-23T06:49:10.602Z,74.36
2019-02-23T06:51:37.362Z,74.17
2019-02-23T06:54:04.190Z,74.17
2019-02-23T06:56:30.900Z,74.39
2019-02-23T06:58:57.637Z,73.76
2019-02-23T07:01:24.480Z,73.43
2019-02-23T07:03:51.224Z,73.43
2019-02-23T07:06:17.985Z,73.75
2019-02-23T07:08:44.702Z,73.79
2019-02-23T07:11:11.446Z,73.79
2019-02-23T07:13:38.176Z,73.05
2019-02-23T07:16:04.951Z,72.79
2019-02-23T07:18:31.704Z,72.26
2019-02-23T07:20:58.445Z,72.26
2019-02-23T07:23:25.355Z,72.57
2019-02-23T07:25:52.091Z,72.57
2019-02-23T07:28:18.867Z,72.85
2019-02-23T07:30:45.619Z,72.41
2019-02-23T07:33:12.351Z,72.60
2019-02-23T07:35:39.072Z,72.60
2019-02-23T07:38:05.843Z,71.45
2019-02-23T07:40:32.598Z,71.45
2019-02-23T07:42:59.455Z,71.27
2019-02-23T07:45:26.196Z,72.15
2019-02-23T07:47:52.936Z,72.15
2019-02-23T07:50:19.779Z,71.71
2019-02-23T07:52:46.873Z,71.50
2019-02-23T07:55:13.763Z,71.80
2019-02-23T07:57:40.497Z,71.31
2019-02-23T08:00:08.258Z,71.32
2019-02-23T08:02:34.980Z,71.37
2019-02-23T08:05:01.757Z,71.70
2019-02-23T08:07:28.455Z,71.27
2019-02-23T08:09:57.695Z,72.02
2019-02-23T08:12:24.744Z,71.44
2019-02-23T08:14:51.484Z,70.59
2019-02-23T08:17:18.498Z,70.91
2019-02-23T08:19:45.218Z,70.91
2019-02-23T08:22:12.048Z,70.29
2019-02-23T08:24:38.764Z,70.42
2019-02-23T08:27:05.542Z,70.40
2019-02-23T08:29:32.285Z,70.27
2019-02-23T08:31:59.509Z,70.41
2019-02-23T08:34:26.271Z,70.54
2019-02-23T08:36:56.292Z,70.54
2019-02-23T08:39:23.062Z,70.27
2019-02-23T08:41:51.239Z,70.16
2019-02-23T08:44:17.992Z,69.18
2019-02-23T08:46:44.749Z,69.18
2019-02-23T08:49:11.621Z,68.57
2019-02-23T08:51:38.760Z,68.91
2019-02-23T08:54:10.507Z,69.16
2019-02-23T08:56:48.388Z,69.16
2019-02-23T08:59:25.593Z,68.40
2019-02-23T09:01:56.533Z,67.91
2019-02-23T09:04:26.222Z,67.56
2019-02-23T09:06:56.233Z,67.48
2019-02-23T09:09:28.276Z,67.48
2019-02-23T09:11:55.056Z,66.98
2019-02-23T09:14:21.833Z,66.90
2019-02-23T09:16:50.096Z,66.74
2019-02-23T09:19:18.255Z,66.89
2019-02-23T09:21:44.995Z,66.87
2019-02-23T09:24:11.747Z,67.03
2019-02-23T09:26:38.889Z,67.09
2019-02-23T09:29:05.643Z,66.52
2019-02-23T09:31:32.397Z,66.21
2019-02-23T09:33:59.141Z,66.15
2019-02-23T09:36:25.873Z,65.92
2019-02-23T09:38:52.876Z,64.74
2019-02-23T09:41:19.751Z,64.28
2019-02-23T09:43:46.487Z,63.93
2019-02-23T09:46:13.246Z,63.22
2019-02-23T09:48:39.948Z,63.11
2019-02-23T09:51:06.717Z,62.31
2019-02-23T09:53:33.448Z,61.29
2019-02-23T09:56:00.617Z,61.54
2019-02-23T09:58:27.385Z,61.04
2019-02-23T10:00:54.113Z,60.87
2019-02-23T10:03:24.197Z,60.80
2019-02-23T10:05:50.914Z,60.26
2019-02-23T10:08:17.845Z,59.68
2019-02-23T10:10:44.595Z,58.96
2019-02-23T10:13:11.370Z,58.69
2019-02-23T10:15:38.111Z,57.82
2019-02-23T10:18:05.176Z,57.72
2019-02-23T10:20:31.899Z,57.41
2019-02-23T10:22:59.378Z,57.43
2019-02-23T10:25:26.097Z,58.13
2019-02-23T10:27:52.870Z,58.34
2019-02-23T10:30:19.584Z,58.02
2019-02-23T10:32:46.313Z,56.24
2019-02-23T10:35:14.631Z,55.44
2019-02-23T10:37:41.422Z,54.21
2019-02-23T10:40:10.790Z,53.29
2019-02-23T10:42:37.541Z,52.58
2019-02-23T10:45:05.647Z,52.98
2019-02-23T10:47:32.415Z,53.15
2019-02-23T10:49:59.180Z,53.25
2019-02-23T10:52:25.949Z,52.31
2019-02-23T10:54:52.689Z,51.20
2019-02-23T10:57:19.773Z,50.57
2019-02-23T10:59:46.702Z,50.53
2019-02-23T11:02:13.568Z,50.70
2019-02-23T11:04:40.289Z,49.98
2019-02-23T11:07:07.198Z,49.01
2019-02-23T11:09:36.239Z,48.86
2019-02-23T11:12:03.109Z,49.01
2019-02-23T11:14:31.146Z,48.31
2019-02-23T11:16:58.883Z,48.56
2019-02-23T11:19:25.637Z,48.27
2019-02-23T11:21:52.384Z,48.61
2019-02-23T11:24:19.212Z,48.08
2019-02-23T11:26:46.010Z,48.02
2019-02-23T11:29:12.873Z,47.93
2019-02-23T11:31:40.390Z,47.80
2019-02-23T11:34:07.512Z,47.72
2019-02-23T11:36:34.238Z,47.30
2019-02-23T11:39:00.978Z,47.01
2019-02-23T11:41:27.695Z,46.87
2019-02-23T11:43:54.605Z,46.66
2019-02-23T11:46:21.337Z,45.99
2019-02-23T11:48:48.149Z,45.46
2019-02-23T11:51:14.917Z,45.70
2019-02-23T11:53:41.885Z,45.99
2019-02-23T11:56:10.525Z,44.48
2019-02-23T11:58:37.229Z,43.17
2019-02-23T12:01:04.020Z,43.07
2019-02-23T12:03:30.780Z,42.64
2019-02-23T12:05:57.790Z,42.41
2019-02-23T12:08:24.656Z,42.65
2019-02-23T12:10:51.403Z,42.39
2019-02-23T12:13:21.093Z,41.39
2019-02-23T12:15:48.976Z,40.82
2019-02-23T12:18:15.731Z,40.80
2019-02-23T12:20:42.454Z,40.30
2019-02-23T12:23:09.203Z,39.96
2019-02-23T12:25:35.930Z,39.91
2019-02-23T12:28:02.676Z,39.36
2019-02-23T12:30:29.411Z,38.80
2019-02-23T12:32:56.177Z,40.00
2019-02-23T12:35:23.096Z,41.72
2019-02-23T12:37:49.821Z,41.79
2019-02-23T12:40:16.655Z,42.40
2019-02-23T12:42:43.398Z,39.52
2019-02-23T12:45:10.149Z,36.92
2019-02-23T12:47:36.923Z,35.35
2019-02-23T12:50:04.793Z,35.62
2019-02-23T12:52:31.644Z,39.43
2019-02-23T12:54:58.402Z,41.08
2019-02-23T12:57:25.137Z,36.58
2019-02-23T12:59:51.939Z,35.31
2019-02-23T13:02:20.280Z,34.61
2019-02-23T13:04:47.380Z,35.90
2019-02-23T13:07:14.107Z,35.84
2019-02-23T13:09:48.263Z,35.39
2019-02-23T13:12:25.986Z,35.21
2019-02-23T13:15:00.317Z,33.58
2019-02-23T13:17:54.466Z,33.07
2019-02-23T13:21:03.181Z,33.40
2019-02-23T13:23:52.234Z,33.74
2019-02-23T13:26:55.500Z,33.55
2019-02-23T13:29:53.831Z,33.13
2019-02-23T13:32:43.025Z,33.00
2019-02-23T13:35:31.647Z,32.75
2019-02-23T13:38:24.690Z,32.14
2019-02-23T13:41:00.782Z,32.57
2019-02-23T13:44:23.978Z,31.72
2019-02-23T13:47:16.044Z,31.59
2019-02-23T13:50:15.010Z,31.35
2019-02-23T13:53:21.194Z,31.55
2019-02-23T13:56:38.124Z,31.55
2019-02-23T13:59:40.242Z,31.68
2019-02-23T14:02:43.690Z,31.98
2019-02-23T14:05:23.464Z,32.00
2019-02-23T14:08:45.158Z,32.73
2019-02-23T14:11:27.345Z,32.44
2019-02-23T14:14:25.751Z,34.38
2019-02-23T14:17:03.575Z,40.76
2019-02-23T14:20:22.370Z,42.73
2019-02-23T14:23:46.129Z,43.29
2019-02-23T14:26:31.509Z,43.31
2019-02-23T14:29:36.924Z,44.01
2019-02-23T14:32:47.039Z,44.02
2019-02-23T14:36:06.980Z,44.02
2019-02-23T14:39:25.195Z,43.42
2019-02-23T14:42:17.081Z,42.55
2019-02-23T14:45:10.628Z,42.57
2019-02-23T14:48:03.178Z,42.32
2019-02-23T14:51:14.451Z,43.16
2019-02-23T14:53:59.337Z,43.39
2019-02-23T14:56:52.538Z,43.24
2019-02-23T14:59:48.215Z,43.40
2019-02-23T15:02:47.639Z,43.52
2019-02-23T15:05:39.952Z,43.61
2019-02-23T15:08:45.536Z,43.37
2019-02-23T15:11:57.072Z,43.08
2019-02-23T15:15:00.365Z,42.89
2019-02-23T15:17:40.621Z,42.63
2019-02-23T15:20:51.141Z,42.57
2019-02-23T15:23:39.839Z,42.76
2019-02-23T15:26:44.502Z,42.60
2019-02-23T15:29:41.503Z,42.95
2019-02-23T15:33:08.658Z,42.73
2019-02-23T15:36:13.736Z,42.41
2019-02-23T15:38:57.638Z,42.11
2019-02-23T15:42:20.885Z,42.37
2019-02-23T15:45:20.132Z,42.66
2019-02-23T15:48:15.423Z,42.57
2019-02-23T15:50:42.205Z,42.50
2019-02-23T15:53:09.204Z,41.51
2019-02-23T15:55:36.494Z,41.53
2019-02-23T15:58:03.826Z,41.57
2019-02-23T16:00:30.608Z,41.63
2019-02-23T16:02:57.579Z,41.97
2019-02-23T16:05:25.753Z,41.78
2019-02-23T16:07:53.059Z,41.91
2019-02-23T16:10:20.293Z,41.93
2019-02-23T16:12:47.858Z,41.62
2019-02-23T16:15:14.581Z,41.82
2019-02-23T16:17:42.885Z,41.83
2019-02-23T16:20:10.100Z,41.85
2019-02-23T16:22:36.896Z,41.92
2019-02-23T16:25:19.519Z,41.76
2019-02-23T16:27:46.682Z,41.70
2019-02-23T16:30:13.537Z,42.26
2019-02-23T16:32:40.322Z,42.19
2019-02-23T16:35:09.818Z,42.05
2019-02-23T16:37:37.207Z,42.34
2019-02-23T16:40:04.108Z,42.28
2019-02-23T16:42:30.836Z,42.54
2019-02-23T16:44:57.599Z,42.87
2019-02-23T16:47:24.347Z,42.54
2019-02-23T16:49:57.053Z,42.23
2019-02-23T16:52:23.757Z,42.32
2019-02-23T16:54:50.651Z,42.75
2019-02-23T16:57:17.733Z,42.44
2019-02-23T16:59:44.851Z,42.33
2019-02-23T17:02:14.535Z,42.04
2019-02-23T17:04:53.184Z,42.10
2019-02-23T17:07:10.569Z,42.31
2019-02-23T17:09:37.983Z,42.48
2019-02-23T17:12:04.940Z,42.41
2019-02-23T17:14:33.539Z,42.41
2019-02-23T17:17:04.485Z,42.51
2019-02-23T17:19:31.435Z,42.84
2019-02-23T17:22:10.772Z,42.85
2019-02-23T17:24:38.492Z,43.01
2019-02-23T17:27:05.520Z,43.01
2019-02-23T17:29:32.925Z,43.04
2019-02-23T17:32:02.233Z,43.17
2019-02-23T17:34:31.941Z,43.06
2019-02-23T17:36:58.662Z,43.25
2019-02-23T17:39:29.421Z,43.26
2019-02-23T17:42:07.944Z,43.26
2019-02-23T17:44:34.695Z,43.03
2019-02-23T17:47:03.462Z,43.17
2019-02-23T17:49:30.187Z,42.75
2019-02-23T17:51:57.369Z,42.93
2019-02-23T17:54:24.381Z,43.29
2019-02-23T17:56:51.126Z,43.47
2019-02-23T17:59:21.050Z,43.55
2019-02-23T18:01:47.788Z,43.67
2019-02-23T18:04:14.519Z,43.61
2019-02-23T18:06:44.138Z,43.50
2019-02-23T18:09:13.668Z,43.68
2019-02-23T18:11:41.917Z,43.47
2019-02-23T18:14:10.760Z,43.77
2019-02-23T18:16:42.072Z,43.45
2019-02-23T18:19:08.805Z,43.14
2019-02-23T18:21:35.574Z,43.60
2019-02-23T18:24:02.696Z,43.62
2019-02-23T18:26:29.528Z,43.55
2019-02-23T18:28:56.531Z,43.65
2019-02-23T18:31:23.252Z,43.80
2019-02-23T18:33:50.363Z,43.76
2019-02-23T18:36:17.133Z,43.76
2019-02-23T18:38:44.391Z,44.05
2019-02-23T18:41:11.133Z,44.12
2019-02-23T18:43:41.629Z,43.93
2019-02-23T18:46:08.575Z,43.96
2019-02-23T18:48:35.724Z,43.82
2019-02-23T18:51:02.881Z,43.94
2019-02-23T18:53:29.602Z,43.92
2019-02-23T18:55:56.318Z,43.79
2019-02-23T18:58:23.046Z,43.95
2019-02-23T19:00:49.809Z,44.09
2019-02-23T19:03:16.592Z,44.22
2019-02-23T19:05:49.741Z,43.96
2019-02-23T19:08:12.252Z,44.08
2019-02-23T19:10:40.037Z,44.12
2019-02-23T19:13:08.475Z,44.20
2019-02-23T19:15:35.451Z,44.21
2019-02-23T19:18:02.215Z,43.98
2019-02-23T19:20:28.977Z,44.09
2019-02-23T19:22:57.652Z,44.42
2019-02-23T19:25:24.398Z,44.51
2019-02-23T19:27:51.182Z,45.14
2019-02-23T19:30:18.076Z,45.44
2019-02-23T19:32:44.824Z,45.54
2019-02-23T19:35:11.542Z,45.95
2019-02-23T19:37:38.457Z,46.03
2019-02-23T19:40:08.443Z,46.36
2019-02-23T19:42:35.208Z,46.21
2019-02-23T19:45:01.996Z,46.19
2019-02-23T19:47:33.253Z,46.27
2019-02-23T19:50:06.281Z,45.80
2019-02-23T19:52:34.506Z,45.53
2019-02-23T19:55:01.258Z,45.41
2019-02-23T19:57:28.003Z,45.73
2019-02-23T19:59:54.930Z,46.07
2019-02-23T20:02:21.688Z,45.89
2019-02-23T20:04:48.542Z,45.90
2019-02-23T20:07:15.659Z,45.69
2019-02-23T20:09:42.426Z,45.88
2019-02-23T20:12:09.447Z,46.25
2019-02-23T20:14:36.240Z,46.08
2019-02-23T20:17:02.989Z,45.98
2019-02-23T20:19:29.965Z,46.12
2019-02-23T20:21:56.750Z,46.00
2019-02-23T20:24:23.509Z,45.92
2019-02-23T20:26:55.711Z,45.92
2019-02-23T20:29:19.052Z,46.14
2019-02-23T20:31:45.998Z,46.46
2019-02-23T20:34:12.865Z,46.53
2019-02-23T20:36:39.735Z,46.69
2019-02-23T20:39:06.538Z,47.01
2019-02-23T20:41:33.284Z,46.87
2019-02-23T20:44:02.191Z,47.50
2019-02-23T20:46:28.971Z,47.87
2019-02-23T20:48:55.823Z,47.88
2019-02-23T20:51:22.939Z,48.06
2019-02-23T20:53:49.738Z,47.93
2019-02-23T20:56:16.554Z,48.06
2019-02-23T20:58:43.302Z,48.20
2019-02-23T21:01:10.056Z,48.08
2019-02-23T21:03:37.267Z,47.83
2019-02-23T21:06:03.995Z,47.46
2019-02-23T21:08:33.336Z,47.23
2019-02-23T21:11:00.056Z,47.80
2019-02-23T21:13:27.176Z,47.94
2019-02-23T21:15:53.936Z,48.16
2019-02-23T21:18:20.664Z,48.42
2019-02-23T21:20:47.420Z,48.24
2019-02-23T21:23:14.498Z,48.26
2019-02-23T21:25:41.235Z,48.52
2019-02-23T21:28:07.970Z,48.70
2019-02-23T21:30:34.787Z,48.77
2019-02-23T21:33:01.557Z,48.79
2019-02-23T21:35:30.775Z,48.19
2019-02-23T21:37:57.574Z,48.45
2019-02-23T21:40:27.270Z,48.45
2019-02-23T21:43:02.836Z,48.43
2019-02-23T21:45:35.193Z,48.79
2019-02-23T21:48:02.499Z,48.98
2019-02-23T21:50:29.742Z,49.21
2019-02-23T21:52:56.458Z,48.95
2019-02-23T21:55:23.206Z,48.84
2019-02-23T21:57:49.962Z,48.59
2019-02-23T22:00:16.740Z,48.34
2019-02-23T22:02:43.441Z,48.37
2019-02-23T22:05:12.612Z,48.74
2019-02-23T22:07:38.927Z,48.74
2019-02-23T22:10:08.614Z,48.32
2019-02-23T22:12:35.342Z,48.47
2019-02-23T22:15:02.343Z,48.42
2019-02-23T22:17:29.221Z,48.28
2019-02-23T22:19:55.934Z,48.48
2019-02-23T22:22:22.704Z,48.42
2019-02-23T22:24:49.459Z,48.42
2019-02-23T22:27:16.171Z,48.50
2019-02-23T22:29:42.940Z,48.50
2019-02-23T22:32:09.979Z,48.44
2019-02-23T22:34:36.706Z,48.18
2019-02-23T22:37:03.439Z,48.77
2019-02-23T22:39:30.384Z,48.75
2019-02-23T22:41:57.121Z,48.75
2019-02-23T22:44:23.856Z,48.89
2019-02-23T22:46:50.601Z,49.19
2019-02-23T22:49:17.467Z,49.28
2019-02-23T22:51:44.630Z,49.28
2019-02-23T22:54:11.506Z,49.17
2019-02-23T22:56:38.242Z,48.87
2019-02-23T22:59:05.078Z,48.91
2019-02-23T23:01:31.910Z,48.56
2019-02-23T23:03:58.808Z,48.56
2019-02-23T23:06:25.995Z,48.65
2019-02-23T23:08:52.796Z,47.92
2019-02-23T23:11:19.511Z,47.92
2019-02-23T23:13:46.315Z,48.24
2019-02-23T23:16:13.372Z,48.21
2019-02-23T23:18:40.102Z,47.98
2019-02-23T23:21:06.852Z,47.91
2019-02-23T23:23:33.578Z,47.91
2019-02-23T23:26:00.465Z,48.08
2019-02-23T23:28:27.217Z,48.08
2019-02-23T23:30:53.974Z,47.72
2019-02-23T23:33:21.050Z,48.81
2019-02-23T23:35:47.792Z,48.81
2019-02-23T23:38:14.514Z,48.91
2019-02-23T23:40:41.387Z,49.11
2019-02-23T23:43:08.455Z,49.11
2019-02-23T23:45:35.365Z,48.34
2019-02-23T23:48:02.355Z,48.39
2019-02-23T23:50:29.163Z,48.37
2019-02-23T23:52:55.873Z,48.37
2019-02-23T23:55:22.639Z,48.10
2019-02-23T23:57:57.827Z,47.64
